sensor_id;sensor_type;location;lat;lon;timestamp;temperature;humidity
8778;DHT22;4425;50.872;4.712;2022-10-17T00:00:07;14.60;99.90
8778;DHT22;4425;50.872;4.712;2022-10-17T00:02:34;14.60;99.90
8778;DHT22;4425;50.872;4.712;2022-10-17T00:05:01;14.60;99.90
8778;DHT22;4425;50.872;4.712;2022-10-17T00:07:30;14.60;99.90
8778;DHT22;4425;50.872;4.712;2022-10-17T00:09:57;14.60;99.90
8778;DHT22;4425;50.872;4.712;2022-10-17T00:12:26;14.60;99.90
8778;DHT22;4425;50.872;4.712;2022-10-17T00:14:55;14.60;99.90
8778;DHT22;4425;50.872;4.712;2022-10-17T00:17:22;14.60;99.90
8778;DHT22;4425;50.872;4.712;2022-10-17T00:19:49;14.60;99.90
8778;DHT22;4425;50.872;4.712;2022-10-17T00:22:16;14.60;99.90
8778;DHT22;4425;50.872;4.712;2022-10-17T00:24:46;14.60;99.90
8778;DHT22;4425;50.872;4.712;2022-10-17T00:27:14;14.50;99.90
8778;DHT22;4425;50.872;4.712;2022-10-17T00:29:41;14.50;99.90
8778;DHT22;4425;50.872;4.712;2022-10-17T00:32:08;14.50;99.90
8778;DHT22;4425;50.872;4.712;2022-10-17T00:34:35;14.40;99.90
8778;DHT22;4425;50.872;4.712;2022-10-17T00:37:03;14.50;99.90
8778;DHT22;4425;50.872;4.712;2022-10-17T00:39:30;14.50;99.90
8778;DHT22;4425;50.872;4.712;2022-10-17T00:41:58;14.50;99.90
8778;DHT22;4425;50.872;4.712;2022-10-17T00:44:58;14.40;99.90
8778;DHT22;4425;50.872;4.712;2022-10-17T00:47:27;14.50;99.90
8778;DHT22;4425;50.872;4.712;2022-10-17T00:49:56;14.50;99.90
8778;DHT22;4425;50.872;4.712;2022-10-17T00:52:25;14.50;99.90
8778;DHT22;4425;50.872;4.712;2022-10-17T00:54:55;14.50;99.90
8778;DHT22;4425;50.872;4.712;2022-10-17T00:57:24;14.50;99.90
8778;DHT22;4425;50.872;4.712;2022-10-17T00:59:54;14.50;99.90
8778;DHT22;4425;50.872;4.712;2022-10-17T01:02:23;14.60;99.90
8778;DHT22;4425;50.872;4.712;2022-10-17T01:04:51;14.60;99.90
8778;DHT22;4425;50.872;4.712;2022-10-17T01:07:20;14.60;99.90
8778;DHT22;4425;50.872;4.712;2022-10-17T01:09:48;14.60;99.90
8778;DHT22;4425;50.872;4.712;2022-10-17T01:12:19;14.60;99.90
8778;DHT22;4425;50.872;4.712;2022-10-17T01:15:00;14.60;99.90
8778;DHT22;4425;50.872;4.712;2022-10-17T01:17:34;14.60;99.90
8778;DHT22;4425;50.872;4.712;2022-10-17T01:20:28;14.60;99.90
8778;DHT22;4425;50.872;4.712;2022-10-17T01:23:17;14.60;99.90
8778;DHT22;4425;50.872;4.712;2022-10-17T01:25:52;14.60;99.90
8778;DHT22;4425;50.872;4.712;2022-10-17T01:28:51;14.50;99.90
8778;DHT22;4425;50.872;4.712;2022-10-17T01:31:28;14.50;99.90
8778;DHT22;4425;50.872;4.712;2022-10-17T01:34:01;14.50;99.90
8778;DHT22;4425;50.872;4.712;2022-10-17T01:36:36;14.50;99.90
8778;DHT22;4425;50.872;4.712;2022-10-17T01:39:12;14.50;99.90
8778;DHT22;4425;50.872;4.712;2022-10-17T01:41:45;14.50;99.90
8778;DHT22;4425;50.872;4.712;2022-10-17T01:44:16;14.60;99.90
8778;DHT22;4425;50.872;4.712;2022-10-17T01:46:48;14.90;99.90
8778;DHT22;4425;50.872;4.712;2022-10-17T01:49:20;15.10;99.90
8778;DHT22;4425;50.872;4.712;2022-10-17T01:51:51;15.30;99.90
8778;DHT22;4425;50.872;4.712;2022-10-17T01:54:24;15.50;99.90
8778;DHT22;4425;50.872;4.712;2022-10-17T01:56:57;15.60;99.90
8778;DHT22;4425;50.872;4.712;2022-10-17T01:59:30;15.80;99.90
8778;DHT22;4425;50.872;4.712;2022-10-17T02:02:02;15.80;99.90
8778;DHT22;4425;50.872;4.712;2022-10-17T02:04:30;16.00;99.90
8778;DHT22;4425;50.872;4.712;2022-10-17T02:07:05;16.00;99.90
8778;DHT22;4425;50.872;4.712;2022-10-17T02:09:33;16.10;99.90
8778;DHT22;4425;50.872;4.712;2022-10-17T02:15:09;16.10;99.90
8778;DHT22;4425;50.872;4.712;2022-10-17T02:17:47;16.30;99.90
8778;DHT22;4425;50.872;4.712;2022-10-17T02:20:20;16.20;99.90
8778;DHT22;4425;50.872;4.712;2022-10-17T02:22:54;16.20;99.90
8778;DHT22;4425;50.872;4.712;2022-10-17T02:25:33;16.20;99.90
8778;DHT22;4425;50.872;4.712;2022-10-17T02:28:08;16.20;99.90
8778;DHT22;4425;50.872;4.712;2022-10-17T02:30:46;16.30;99.90
8778;DHT22;4425;50.872;4.712;2022-10-17T02:33:21;16.20;99.90
8778;DHT22;4425;50.872;4.712;2022-10-17T02:35:52;16.30;99.90
8778;DHT22;4425;50.872;4.712;2022-10-17T02:38:20;16.30;99.90
8778;DHT22;4425;50.872;4.712;2022-10-17T02:40:50;16.40;99.90
8778;DHT22;4425;50.872;4.712;2022-10-17T02:43:19;16.40;99.90
8778;DHT22;4425;50.872;4.712;2022-10-17T02:45:46;16.40;99.90
8778;DHT22;4425;50.872;4.712;2022-10-17T02:48:17;16.40;99.90
8778;DHT22;4425;50.872;4.712;2022-10-17T02:50:57;16.40;99.90
8778;DHT22;4425;50.872;4.712;2022-10-17T02:53:33;16.50;99.90
8778;DHT22;4425;50.872;4.712;2022-10-17T02:56:06;16.50;99.90
8778;DHT22;4425;50.872;4.712;2022-10-17T02:58:35;16.60;99.90
8778;DHT22;4425;50.872;4.712;2022-10-17T03:01:04;16.60;99.90
8778;DHT22;4425;50.872;4.712;2022-10-17T03:03:33;16.70;99.90
8778;DHT22;4425;50.872;4.712;2022-10-17T03:05:59;16.80;99.90
8778;DHT22;4425;50.872;4.712;2022-10-17T03:08:28;16.80;99.90
8778;DHT22;4425;50.872;4.712;2022-10-17T03:10:55;16.90;99.90
8778;DHT22;4425;50.872;4.712;2022-10-17T03:13:23;17.00;99.90
8778;DHT22;4425;50.872;4.712;2022-10-17T03:15:50;16.90;99.90
8778;DHT22;4425;50.872;4.712;2022-10-17T03:18:18;16.90;99.90
8778;DHT22;4425;50.872;4.712;2022-10-17T03:20:47;17.00;99.90
8778;DHT22;4425;50.872;4.712;2022-10-17T03:23:14;17.10;99.90
8778;DHT22;4425;50.872;4.712;2022-10-17T03:25:41;17.10;99.90
8778;DHT22;4425;50.872;4.712;2022-10-17T03:28:09;17.10;99.90
8778;DHT22;4425;50.872;4.712;2022-10-17T03:30:37;17.20;99.90
8778;DHT22;4425;50.872;4.712;2022-10-17T03:33:04;17.20;99.90
8778;DHT22;4425;50.872;4.712;2022-10-17T03:35:31;17.20;99.90
8778;DHT22;4425;50.872;4.712;2022-10-17T03:37:59;17.30;99.90
8778;DHT22;4425;50.872;4.712;2022-10-17T03:40:26;17.30;99.90
8778;DHT22;4425;50.872;4.712;2022-10-17T03:42:53;17.30;99.90
8778;DHT22;4425;50.872;4.712;2022-10-17T03:45:20;17.20;99.90
8778;DHT22;4425;50.872;4.712;2022-10-17T03:47:47;17.20;99.90
8778;DHT22;4425;50.872;4.712;2022-10-17T03:50:15;17.20;99.90
8778;DHT22;4425;50.872;4.712;2022-10-17T03:52:45;17.20;99.90
8778;DHT22;4425;50.872;4.712;2022-10-17T03:55:14;17.20;99.90
8778;DHT22;4425;50.872;4.712;2022-10-17T03:57:41;17.10;99.90
8778;DHT22;4425;50.872;4.712;2022-10-17T04:00:09;17.10;99.90
8778;DHT22;4425;50.872;4.712;2022-10-17T04:02:36;17.10;99.90
8778;DHT22;4425;50.872;4.712;2022-10-17T04:05:04;17.10;99.90
8778;DHT22;4425;50.872;4.712;2022-10-17T04:07:33;17.10;99.90
8778;DHT22;4425;50.872;4.712;2022-10-17T04:10:01;17.10;99.90
8778;DHT22;4425;50.872;4.712;2022-10-17T04:12:30;17.00;99.90
8778;DHT22;4425;50.872;4.712;2022-10-17T04:14:57;17.10;99.90
8778;DHT22;4425;50.872;4.712;2022-10-17T04:17:24;17.10;99.90
8778;DHT22;4425;50.872;4.712;2022-10-17T04:19:51;17.00;99.90
8778;DHT22;4425;50.872;4.712;2022-10-17T04:22:18;17.00;99.90
8778;DHT22;4425;50.872;4.712;2022-10-17T04:24:45;17.00;99.90
8778;DHT22;4425;50.872;4.712;2022-10-17T04:27:12;17.00;99.90
8778;DHT22;4425;50.872;4.712;2022-10-17T04:29:40;16.90;99.90
8778;DHT22;4425;50.872;4.712;2022-10-17T04:32:08;16.90;99.90
8778;DHT22;4425;50.872;4.712;2022-10-17T04:34:35;16.90;99.90
8778;DHT22;4425;50.872;4.712;2022-10-17T04:37:03;17.00;99.90
8778;DHT22;4425;50.872;4.712;2022-10-17T04:39:30;17.00;99.90
8778;DHT22;4425;50.872;4.712;2022-10-17T04:41:59;17.00;99.90
8778;DHT22;4425;50.872;4.712;2022-10-17T04:44:26;17.00;99.90
8778;DHT22;4425;50.872;4.712;2022-10-17T04:46:56;17.10;99.90
8778;DHT22;4425;50.872;4.712;2022-10-17T04:49:23;17.10;99.90
8778;DHT22;4425;50.872;4.712;2022-10-17T04:51:50;17.10;99.90
8778;DHT22;4425;50.872;4.712;2022-10-17T04:54:17;17.10;99.90
8778;DHT22;4425;50.872;4.712;2022-10-17T04:56:44;17.20;99.90
8778;DHT22;4425;50.872;4.712;2022-10-17T04:59:14;17.20;99.90
8778;DHT22;4425;50.872;4.712;2022-10-17T05:01:41;17.20;99.90
8778;DHT22;4425;50.872;4.712;2022-10-17T05:04:10;17.20;99.90
8778;DHT22;4425;50.872;4.712;2022-10-17T05:06:37;17.20;99.90
8778;DHT22;4425;50.872;4.712;2022-10-17T05:09:04;17.20;99.90
8778;DHT22;4425;50.872;4.712;2022-10-17T05:11:31;17.20;99.90
8778;DHT22;4425;50.872;4.712;2022-10-17T05:14:00;17.20;99.90
8778;DHT22;4425;50.872;4.712;2022-10-17T05:16:28;17.30;99.90
8778;DHT22;4425;50.872;4.712;2022-10-17T05:18:56;17.30;99.90
8778;DHT22;4425;50.872;4.712;2022-10-17T05:21:26;17.30;99.90
8778;DHT22;4425;50.872;4.712;2022-10-17T05:23:53;17.30;99.90
8778;DHT22;4425;50.872;4.712;2022-10-17T05:26:21;17.30;99.90
8778;DHT22;4425;50.872;4.712;2022-10-17T05:28:48;17.30;99.90
8778;DHT22;4425;50.872;4.712;2022-10-17T05:31:16;17.20;99.90
8778;DHT22;4425;50.872;4.712;2022-10-17T05:33:43;17.20;99.90
8778;DHT22;4425;50.872;4.712;2022-10-17T05:36:10;17.10;99.90
8778;DHT22;4425;50.872;4.712;2022-10-17T05:38:40;17.10;99.90
8778;DHT22;4425;50.872;4.712;2022-10-17T05:41:08;17.10;99.90
8778;DHT22;4425;50.872;4.712;2022-10-17T05:43:35;17.00;99.90
8778;DHT22;4425;50.872;4.712;2022-10-17T05:46:05;17.00;99.90
8778;DHT22;4425;50.872;4.712;2022-10-17T05:48:32;17.00;99.90
8778;DHT22;4425;50.872;4.712;2022-10-17T05:51:01;17.00;99.90
8778;DHT22;4425;50.872;4.712;2022-10-17T05:53:30;17.00;99.90
8778;DHT22;4425;50.872;4.712;2022-10-17T05:56:04;17.00;99.90
8778;DHT22;4425;50.872;4.712;2022-10-17T05:58:34;17.10;99.90
8778;DHT22;4425;50.872;4.712;2022-10-17T06:01:04;17.20;99.90
8778;DHT22;4425;50.872;4.712;2022-10-17T06:03:32;17.30;99.90
8778;DHT22;4425;50.872;4.712;2022-10-17T06:06:11;17.40;99.90
8778;DHT22;4425;50.872;4.712;2022-10-17T06:08:38;17.40;99.90
8778;DHT22;4425;50.872;4.712;2022-10-17T06:11:09;17.40;99.90
8778;DHT22;4425;50.872;4.712;2022-10-17T06:13:36;17.40;99.90
8778;DHT22;4425;50.872;4.712;2022-10-17T06:16:04;17.50;99.90
8778;DHT22;4425;50.872;4.712;2022-10-17T06:18:36;17.40;99.90
8778;DHT22;4425;50.872;4.712;2022-10-17T06:21:07;17.50;99.90
8778;DHT22;4425;50.872;4.712;2022-10-17T06:23:44;17.50;99.90
8778;DHT22;4425;50.872;4.712;2022-10-17T06:26:18;17.50;99.90
8778;DHT22;4425;50.872;4.712;2022-10-17T06:28:50;17.50;99.90
8778;DHT22;4425;50.872;4.712;2022-10-17T06:31:23;17.60;99.90
8778;DHT22;4425;50.872;4.712;2022-10-17T06:33:51;17.60;99.90
8778;DHT22;4425;50.872;4.712;2022-10-17T06:36:20;17.70;99.90
8778;DHT22;4425;50.872;4.712;2022-10-17T06:38:57;17.70;99.90
8778;DHT22;4425;50.872;4.712;2022-10-17T06:47:32;17.90;99.90
8778;DHT22;4425;50.872;4.712;2022-10-17T06:50:13;18.00;99.90
8778;DHT22;4425;50.872;4.712;2022-10-17T06:52:41;18.00;99.90
8778;DHT22;4425;50.872;4.712;2022-10-17T06:55:11;18.00;99.90
8778;DHT22;4425;50.872;4.712;2022-10-17T06:57:39;18.10;99.90
8778;DHT22;4425;50.872;4.712;2022-10-17T07:00:18;18.10;99.90
8778;DHT22;4425;50.872;4.712;2022-10-17T07:03:30;18.10;99.90
8778;DHT22;4425;50.872;4.712;2022-10-17T07:06:00;18.20;99.90
8778;DHT22;4425;50.872;4.712;2022-10-17T07:08:33;18.30;99.90
8778;DHT22;4425;50.872;4.712;2022-10-17T07:11:13;18.40;99.90
8778;DHT22;4425;50.872;4.712;2022-10-17T07:13:40;18.50;99.90
8778;DHT22;4425;50.872;4.712;2022-10-17T07:16:08;18.60;99.90
8778;DHT22;4425;50.872;4.712;2022-10-17T07:18:38;18.70;99.90
8778;DHT22;4425;50.872;4.712;2022-10-17T07:21:06;18.70;99.90
8778;DHT22;4425;50.872;4.712;2022-10-17T07:23:34;18.80;99.90
8778;DHT22;4425;50.872;4.712;2022-10-17T07:26:06;18.80;99.90
8778;DHT22;4425;50.872;4.712;2022-10-17T07:28:34;18.70;99.90
8778;DHT22;4425;50.872;4.712;2022-10-17T07:31:06;18.80;99.90
8778;DHT22;4425;50.872;4.712;2022-10-17T07:33:34;18.80;99.90
8778;DHT22;4425;50.872;4.712;2022-10-17T07:36:10;18.70;99.90
8778;DHT22;4425;50.872;4.712;2022-10-17T07:38:44;18.60;99.90
8778;DHT22;4425;50.872;4.712;2022-10-17T07:41:12;18.50;99.90
8778;DHT22;4425;50.872;4.712;2022-10-17T07:43:41;18.50;99.90
8778;DHT22;4425;50.872;4.712;2022-10-17T07:46:11;18.50;99.90
8778;DHT22;4425;50.872;4.712;2022-10-17T07:48:43;18.50;99.90
8778;DHT22;4425;50.872;4.712;2022-10-17T07:51:15;18.60;99.90
8778;DHT22;4425;50.872;4.712;2022-10-17T07:53:44;18.60;99.90
8778;DHT22;4425;50.872;4.712;2022-10-17T07:56:14;18.70;99.90
8778;DHT22;4425;50.872;4.712;2022-10-17T07:58:43;18.60;99.90
8778;DHT22;4425;50.872;4.712;2022-10-17T08:01:18;18.70;99.90
8778;DHT22;4425;50.872;4.712;2022-10-17T08:03:52;18.70;99.90
8778;DHT22;4425;50.872;4.712;2022-10-17T08:06:22;18.60;99.90
8778;DHT22;4425;50.872;4.712;2022-10-17T08:08:49;18.60;99.90
8778;DHT22;4425;50.872;4.712;2022-10-17T08:11:17;18.60;99.90
8778;DHT22;4425;50.872;4.712;2022-10-17T08:13:44;18.60;99.90
8778;DHT22;4425;50.872;4.712;2022-10-17T08:16:12;18.50;99.90
8778;DHT22;4425;50.872;4.712;2022-10-17T08:18:41;18.40;99.90
8778;DHT22;4425;50.872;4.712;2022-10-17T08:21:09;18.30;99.90
8778;DHT22;4425;50.872;4.712;2022-10-17T08:23:39;18.30;99.90
8778;DHT22;4425;50.872;4.712;2022-10-17T08:26:07;18.30;99.90
8778;DHT22;4425;50.872;4.712;2022-10-17T08:28:41;18.30;99.90
8778;DHT22;4425;50.872;4.712;2022-10-17T08:31:11;18.10;99.90
8778;DHT22;4425;50.872;4.712;2022-10-17T08:33:43;18.10;99.90
8778;DHT22;4425;50.872;4.712;2022-10-17T08:36:15;18.10;99.90
8778;DHT22;4425;50.872;4.712;2022-10-17T08:38:45;18.10;99.90
8778;DHT22;4425;50.872;4.712;2022-10-17T08:41:21;18.00;99.90
8778;DHT22;4425;50.872;4.712;2022-10-17T08:44:02;18.10;99.90
8778;DHT22;4425;50.872;4.712;2022-10-17T08:46:36;18.10;99.90
8778;DHT22;4425;50.872;4.712;2022-10-17T08:49:11;18.10;99.90
8778;DHT22;4425;50.872;4.712;2022-10-17T08:51:46;18.10;99.90
8778;DHT22;4425;50.872;4.712;2022-10-17T08:54:19;18.10;99.90
8778;DHT22;4425;50.872;4.712;2022-10-17T08:56:50;18.00;99.90
8778;DHT22;4425;50.872;4.712;2022-10-17T08:59:24;18.00;99.90
8778;DHT22;4425;50.872;4.712;2022-10-17T09:02:00;17.90;99.90
8778;DHT22;4425;50.872;4.712;2022-10-17T09:04:48;17.90;99.90
8778;DHT22;4425;50.872;4.712;2022-10-17T09:07:21;17.90;99.90
8778;DHT22;4425;50.872;4.712;2022-10-17T09:10:08;17.90;99.90
8778;DHT22;4425;50.872;4.712;2022-10-17T09:12:45;17.90;99.90
8778;DHT22;4425;50.872;4.712;2022-10-17T09:15:37;17.90;99.90
8778;DHT22;4425;50.872;4.712;2022-10-17T09:18:12;17.90;99.90
8778;DHT22;4425;50.872;4.712;2022-10-17T09:20:46;18.00;99.90
8778;DHT22;4425;50.872;4.712;2022-10-17T09:23:19;18.00;99.90
8778;DHT22;4425;50.872;4.712;2022-10-17T09:25:52;18.00;99.90
8778;DHT22;4425;50.872;4.712;2022-10-17T09:28:26;18.00;99.90
8778;DHT22;4425;50.872;4.712;2022-10-17T09:30:58;17.90;99.90
8778;DHT22;4425;50.872;4.712;2022-10-17T09:33:28;17.90;99.90
8778;DHT22;4425;50.872;4.712;2022-10-17T09:35:57;17.90;99.90
8778;DHT22;4425;50.872;4.712;2022-10-17T09:38:37;17.90;99.90
8778;DHT22;4425;50.872;4.712;2022-10-17T09:41:17;18.00;99.90
8778;DHT22;4425;50.872;4.712;2022-10-17T09:43:46;18.00;99.90
8778;DHT22;4425;50.872;4.712;2022-10-17T09:46:17;17.90;99.90
8778;DHT22;4425;50.872;4.712;2022-10-17T09:48:50;17.90;99.90
8778;DHT22;4425;50.872;4.712;2022-10-17T09:51:18;17.80;99.90
8778;DHT22;4425;50.872;4.712;2022-10-17T09:53:48;17.80;99.90
8778;DHT22;4425;50.872;4.712;2022-10-17T09:56:27;17.80;99.90
8778;DHT22;4425;50.872;4.712;2022-10-17T09:58:58;17.90;99.90
8778;DHT22;4425;50.872;4.712;2022-10-17T10:01:26;17.90;99.90
8778;DHT22;4425;50.872;4.712;2022-10-17T10:04:09;17.90;99.90
8778;DHT22;4425;50.872;4.712;2022-10-17T10:06:36;18.00;99.90
8778;DHT22;4425;50.872;4.712;2022-10-17T10:09:04;18.10;99.90
8778;DHT22;4425;50.872;4.712;2022-10-17T10:11:49;18.10;99.90
8778;DHT22;4425;50.872;4.712;2022-10-17T10:14:21;18.20;99.90
8778;DHT22;4425;50.872;4.712;2022-10-17T10:16:51;18.30;99.90
8778;DHT22;4425;50.872;4.712;2022-10-17T10:19:25;18.30;99.90
8778;DHT22;4425;50.872;4.712;2022-10-17T10:21:57;18.40;99.90
8778;DHT22;4425;50.872;4.712;2022-10-17T10:24:25;18.50;99.90
8778;DHT22;4425;50.872;4.712;2022-10-17T10:26:59;18.50;99.90
8778;DHT22;4425;50.872;4.712;2022-10-17T10:29:33;18.50;99.90
8778;DHT22;4425;50.872;4.712;2022-10-17T10:32:14;18.70;99.90
8778;DHT22;4425;50.872;4.712;2022-10-17T10:34:48;18.70;99.90
8778;DHT22;4425;50.872;4.712;2022-10-17T10:37:21;18.90;99.90
8778;DHT22;4425;50.872;4.712;2022-10-17T10:39:51;19.00;99.90
8778;DHT22;4425;50.872;4.712;2022-10-17T10:42:35;19.10;99.90
8778;DHT22;4425;50.872;4.712;2022-10-17T10:45:14;19.10;99.90
8778;DHT22;4425;50.872;4.712;2022-10-17T10:47:49;19.20;99.90
8778;DHT22;4425;50.872;4.712;2022-10-17T10:50:25;19.20;99.90
8778;DHT22;4425;50.872;4.712;2022-10-17T10:53:28;19.30;99.90
8778;DHT22;4425;50.872;4.712;2022-10-17T10:56:09;19.40;99.90
8778;DHT22;4425;50.872;4.712;2022-10-17T10:58:50;19.40;99.90
8778;DHT22;4425;50.872;4.712;2022-10-17T11:01:32;19.30;99.90
8778;DHT22;4425;50.872;4.712;2022-10-17T11:04:16;19.30;99.90
8778;DHT22;4425;50.872;4.712;2022-10-17T11:06:46;19.30;99.90
8778;DHT22;4425;50.872;4.712;2022-10-17T11:09:29;19.30;99.90
8778;DHT22;4425;50.872;4.712;2022-10-17T11:12:04;19.20;99.90
8778;DHT22;4425;50.872;4.712;2022-10-17T11:14:43;19.20;99.90
8778;DHT22;4425;50.872;4.712;2022-10-17T11:17:21;19.00;99.90
8778;DHT22;4425;50.872;4.712;2022-10-17T11:20:00;18.90;99.90
8778;DHT22;4425;50.872;4.712;2022-10-17T11:22:31;18.80;99.90
8778;DHT22;4425;50.872;4.712;2022-10-17T11:25:03;18.80;99.90
8778;DHT22;4425;50.872;4.712;2022-10-17T11:27:33;18.80;99.90
8778;DHT22;4425;50.872;4.712;2022-10-17T11:30:03;18.80;99.90
8778;DHT22;4425;50.872;4.712;2022-10-17T11:32:36;18.80;99.90
8778;DHT22;4425;50.872;4.712;2022-10-17T11:35:13;18.80;99.90
8778;DHT22;4425;50.872;4.712;2022-10-17T11:37:46;18.80;99.90
8778;DHT22;4425;50.872;4.712;2022-10-17T11:40:28;18.80;99.90
8778;DHT22;4425;50.872;4.712;2022-10-17T11:43:00;19.00;99.90
8778;DHT22;4425;50.872;4.712;2022-10-17T11:45:39;19.00;99.90
8778;DHT22;4425;50.872;4.712;2022-10-17T11:48:16;19.10;99.90
8778;DHT22;4425;50.872;4.712;2022-10-17T11:50:46;19.10;99.90
8778;DHT22;4425;50.872;4.712;2022-10-17T11:53:18;19.20;99.90
8778;DHT22;4425;50.872;4.712;2022-10-17T11:55:47;19.30;99.90
8778;DHT22;4425;50.872;4.712;2022-10-17T11:58:24;19.40;99.90
8778;DHT22;4425;50.872;4.712;2022-10-17T12:01:03;19.40;99.90
8778;DHT22;4425;50.872;4.712;2022-10-17T12:03:47;19.30;99.90
8778;DHT22;4425;50.872;4.712;2022-10-17T12:06:22;19.30;99.90
8778;DHT22;4425;50.872;4.712;2022-10-17T12:09:00;19.20;99.90
8778;DHT22;4425;50.872;4.712;2022-10-17T12:11:36;19.20;99.90
8778;DHT22;4425;50.872;4.712;2022-10-17T12:14:38;19.30;99.90
8778;DHT22;4425;50.872;4.712;2022-10-17T12:17:27;19.30;99.90
8778;DHT22;4425;50.872;4.712;2022-10-17T12:20:23;19.30;99.90
8778;DHT22;4425;50.872;4.712;2022-10-17T12:22:53;19.30;99.90
8778;DHT22;4425;50.872;4.712;2022-10-17T12:25:25;19.40;99.90
8778;DHT22;4425;50.872;4.712;2022-10-17T12:28:12;19.30;99.90
8778;DHT22;4425;50.872;4.712;2022-10-17T12:30:53;19.30;99.90
8778;DHT22;4425;50.872;4.712;2022-10-17T12:33:27;19.20;99.90
8778;DHT22;4425;50.872;4.712;2022-10-17T12:42:45;19.20;99.90
8778;DHT22;4425;50.872;4.712;2022-10-17T12:45:44;19.10;99.90
8778;DHT22;4425;50.872;4.712;2022-10-17T12:48:12;19.10;99.90
8778;DHT22;4425;50.872;4.712;2022-10-17T12:51:03;19.00;99.90
8778;DHT22;4425;50.872;4.712;2022-10-17T12:53:37;19.10;99.90
8778;DHT22;4425;50.872;4.712;2022-10-17T12:56:07;19.20;99.90
8778;DHT22;4425;50.872;4.712;2022-10-17T12:58:35;19.40;99.90
8778;DHT22;4425;50.872;4.712;2022-10-17T13:01:03;19.40;99.90
8778;DHT22;4425;50.872;4.712;2022-10-17T13:03:41;19.40;99.90
8778;DHT22;4425;50.872;4.712;2022-10-17T13:06:17;19.40;99.90
8778;DHT22;4425;50.872;4.712;2022-10-17T13:08:49;19.20;99.90
8778;DHT22;4425;50.872;4.712;2022-10-17T13:11:21;19.20;99.90
8778;DHT22;4425;50.872;4.712;2022-10-17T13:13:52;19.30;99.90
8778;DHT22;4425;50.872;4.712;2022-10-17T13:16:28;19.30;99.90
8778;DHT22;4425;50.872;4.712;2022-10-17T13:18:57;19.30;99.90
8778;DHT22;4425;50.872;4.712;2022-10-17T13:21:28;19.20;99.90
8778;DHT22;4425;50.872;4.712;2022-10-17T13:23:56;19.20;99.90
8778;DHT22;4425;50.872;4.712;2022-10-17T13:26:27;19.30;99.90
8778;DHT22;4425;50.872;4.712;2022-10-17T13:29:03;19.30;99.90
8778;DHT22;4425;50.872;4.712;2022-10-17T13:31:32;19.40;99.90
8778;DHT22;4425;50.872;4.712;2022-10-17T13:34:03;19.40;99.90
8778;DHT22;4425;50.872;4.712;2022-10-17T13:36:35;19.50;99.90
8778;DHT22;4425;50.872;4.712;2022-10-17T13:39:06;19.60;99.90
8778;DHT22;4425;50.872;4.712;2022-10-17T13:41:34;19.70;99.90
8778;DHT22;4425;50.872;4.712;2022-10-17T13:44:11;19.60;99.90
8778;DHT22;4425;50.872;4.712;2022-10-17T13:46:43;19.50;99.90
8778;DHT22;4425;50.872;4.712;2022-10-17T13:49:20;19.50;99.90
8778;DHT22;4425;50.872;4.712;2022-10-17T13:51:51;19.50;99.90
8778;DHT22;4425;50.872;4.712;2022-10-17T13:54:33;19.40;99.90
8778;DHT22;4425;50.872;4.712;2022-10-17T13:57:05;19.40;99.90
8778;DHT22;4425;50.872;4.712;2022-10-17T13:59:38;19.40;99.90
8778;DHT22;4425;50.872;4.712;2022-10-17T14:02:14;19.40;99.90
8778;DHT22;4425;50.872;4.712;2022-10-17T14:04:59;19.40;99.90
8778;DHT22;4425;50.872;4.712;2022-10-17T14:07:33;19.40;99.90
8778;DHT22;4425;50.872;4.712;2022-10-17T14:10:05;19.30;99.90
8778;DHT22;4425;50.872;4.712;2022-10-17T14:12:43;19.30;99.90
8778;DHT22;4425;50.872;4.712;2022-10-17T14:15:13;19.20;99.90
8778;DHT22;4425;50.872;4.712;2022-10-17T14:17:41;19.20;99.90
8778;DHT22;4425;50.872;4.712;2022-10-17T14:20:21;19.00;99.90
8778;DHT22;4425;50.872;4.712;2022-10-17T14:22:51;19.00;99.90
8778;DHT22;4425;50.872;4.712;2022-10-17T14:25:29;19.00;99.90
8778;DHT22;4425;50.872;4.712;2022-10-17T14:28:02;19.00;99.90
8778;DHT22;4425;50.872;4.712;2022-10-17T14:30:38;19.10;99.90
8778;DHT22;4425;50.872;4.712;2022-10-17T14:33:15;19.10;99.90
8778;DHT22;4425;50.872;4.712;2022-10-17T14:35:56;19.10;99.90
8778;DHT22;4425;50.872;4.712;2022-10-17T14:38:32;19.10;99.90
8778;DHT22;4425;50.872;4.712;2022-10-17T14:41:02;19.10;99.90
8778;DHT22;4425;50.872;4.712;2022-10-17T14:43:33;19.00;99.90
8778;DHT22;4425;50.872;4.712;2022-10-17T14:46:02;18.90;99.90
8778;DHT22;4425;50.872;4.712;2022-10-17T14:48:31;18.90;99.90
8778;DHT22;4425;50.872;4.712;2022-10-17T14:51:09;18.90;99.90
8778;DHT22;4425;50.872;4.712;2022-10-17T14:53:41;18.90;99.90
8778;DHT22;4425;50.872;4.712;2022-10-17T14:56:21;18.80;99.90
8778;DHT22;4425;50.872;4.712;2022-10-17T14:58:49;18.80;99.90
8778;DHT22;4425;50.872;4.712;2022-10-17T15:01:17;18.80;99.90
8778;DHT22;4425;50.872;4.712;2022-10-17T15:03:47;18.80;99.90
8778;DHT22;4425;50.872;4.712;2022-10-17T15:06:27;18.80;99.90
8778;DHT22;4425;50.872;4.712;2022-10-17T15:09:04;18.90;99.90
8778;DHT22;4425;50.872;4.712;2022-10-17T15:11:36;18.80;99.90
8778;DHT22;4425;50.872;4.712;2022-10-17T15:14:25;18.80;99.90
8778;DHT22;4425;50.872;4.712;2022-10-17T15:16:52;18.80;99.90
8778;DHT22;4425;50.872;4.712;2022-10-17T15:19:24;18.80;99.90
8778;DHT22;4425;50.872;4.712;2022-10-17T15:21:52;18.80;99.90
8778;DHT22;4425;50.872;4.712;2022-10-17T15:24:24;18.80;99.90
8778;DHT22;4425;50.872;4.712;2022-10-17T15:26:51;18.70;99.90
8778;DHT22;4425;50.872;4.712;2022-10-17T15:29:22;18.70;99.90
8778;DHT22;4425;50.872;4.712;2022-10-17T15:31:49;18.60;99.90
8778;DHT22;4425;50.872;4.712;2022-10-17T15:34:20;18.60;99.90
8778;DHT22;4425;50.872;4.712;2022-10-17T15:36:49;18.50;99.90
8778;DHT22;4425;50.872;4.712;2022-10-17T15:39:17;18.50;99.90
8778;DHT22;4425;50.872;4.712;2022-10-17T15:42:06;18.50;99.90
8778;DHT22;4425;50.872;4.712;2022-10-17T15:44:45;18.40;99.90
8778;DHT22;4425;50.872;4.712;2022-10-17T15:47:22;18.30;99.90
8778;DHT22;4425;50.872;4.712;2022-10-17T15:49:53;18.30;99.90
8778;DHT22;4425;50.872;4.712;2022-10-17T15:52:34;18.30;99.90
8778;DHT22;4425;50.872;4.712;2022-10-17T15:55:13;18.30;99.90
8778;DHT22;4425;50.872;4.712;2022-10-17T15:57:49;18.20;99.90
8778;DHT22;4425;50.872;4.712;2022-10-17T16:00:20;18.20;99.90
8778;DHT22;4425;50.872;4.712;2022-10-17T16:02:48;18.20;99.90
8778;DHT22;4425;50.872;4.712;2022-10-17T16:05:17;18.20;99.90
8778;DHT22;4425;50.872;4.712;2022-10-17T16:08:06;18.20;99.90
8778;DHT22;4425;50.872;4.712;2022-10-17T16:10:53;18.20;99.90
8778;DHT22;4425;50.872;4.712;2022-10-17T16:13:37;18.20;99.90
8778;DHT22;4425;50.872;4.712;2022-10-17T16:16:19;18.10;99.90
8778;DHT22;4425;50.872;4.712;2022-10-17T16:18:48;18.20;99.90
8778;DHT22;4425;50.872;4.712;2022-10-17T16:21:36;18.10;99.90
8778;DHT22;4425;50.872;4.712;2022-10-17T16:24:09;18.10;99.90
8778;DHT22;4425;50.872;4.712;2022-10-17T16:26:40;18.10;99.90
8778;DHT22;4425;50.872;4.712;2022-10-17T16:29:18;18.00;99.90
8778;DHT22;4425;50.872;4.712;2022-10-17T16:31:47;18.00;99.90
8778;DHT22;4425;50.872;4.712;2022-10-17T16:34:16;17.90;99.90
8778;DHT22;4425;50.872;4.712;2022-10-17T16:36:44;17.90;99.90
8778;DHT22;4425;50.872;4.712;2022-10-17T16:39:20;17.90;99.90
8778;DHT22;4425;50.872;4.712;2022-10-17T16:41:49;17.90;99.90
8778;DHT22;4425;50.872;4.712;2022-10-17T16:47:53;17.80;99.90
8778;DHT22;4425;50.872;4.712;2022-10-17T16:50:38;17.70;99.90
8778;DHT22;4425;50.872;4.712;2022-10-17T16:53:28;17.70;99.90
8778;DHT22;4425;50.872;4.712;2022-10-17T16:56:20;17.60;99.90